sensor_id;sensor_type;location;lat;lon;timestamp;P1;durP1;ratioP1;P2;durP2;ratioP2
9449;SDS011;4763;48.370;10.874;2023-04-15T00:01:41;6.90;;;3.90;;
9449;SDS011;4763;48.370;10.874;2023-04-15T00:04:29;4.60;;;3.30;;
9449;SDS011;4763;48.370;10.874;2023-04-15T00:07:17;6.97;;;3.10;;
9449;SDS011;4763;48.370;10.874;2023-04-15T00:10:05;6.77;;;3.47;;
9449;SDS011;4763;48.370;10.874;2023-04-15T00:12:53;4.80;;;3.70;;
9449;SDS011;4763;48.370;10.874;2023-04-15T00:15:41;5.83;;;3.40;;
9449;SDS011;4763;48.370;10.874;2023-04-15T00:18:29;5.17;;;2.73;;
9449;SDS011;4763;48.370;10.874;2023-04-15T00:21:16;3.53;;;2.80;;
9449;SDS011;4763;48.370;10.874;2023-04-15T00:24:03;4.83;;;3.20;;
9449;SDS011;4763;48.370;10.874;2023-04-15T00:26:50;3.93;;;3.53;;
9449;SDS011;4763;48.370;10.874;2023-04-15T00:29:37;7.00;;;3.30;;
9449;SDS011;4763;48.370;10.874;2023-04-15T00:32:25;4.20;;;2.80;;
9449;SDS011;4763;48.370;10.874;2023-04-15T00:35:12;7.33;;;3.23;;
9449;SDS011;4763;48.370;10.874;2023-04-15T00:37:59;5.13;;;3.47;;
9449;SDS011;4763;48.370;10.874;2023-04-15T00:40:46;3.97;;;3.27;;
9449;SDS011;4763;48.370;10.874;2023-04-15T00:43:33;4.40;;;3.43;;
9449;SDS011;4763;48.370;10.874;2023-04-15T00:46:21;6.33;;;3.30;;
9449;SDS011;4763;48.370;10.874;2023-04-15T00:49:10;5.50;;;3.33;;
9449;SDS011;4763;48.370;10.874;2023-04-15T00:51:58;6.77;;;3.43;;
9449;SDS011;4763;48.370;10.874;2023-04-15T00:54:45;5.37;;;3.70;;
9449;SDS011;4763;48.370;10.874;2023-04-15T00:57:32;4.00;;;3.10;;
9449;SDS011;4763;48.370;10.874;2023-04-15T01:00:21;5.63;;;3.00;;
9449;SDS011;4763;48.370;10.874;2023-04-15T01:03:08;4.17;;;3.23;;
9449;SDS011;4763;48.370;10.874;2023-04-15T01:05:57;5.43;;;3.07;;
9449;SDS011;4763;48.370;10.874;2023-04-15T01:08:45;6.10;;;3.33;;
9449;SDS011;4763;48.370;10.874;2023-04-15T01:11:32;4.67;;;3.30;;
9449;SDS011;4763;48.370;10.874;2023-04-15T01:14:19;4.77;;;2.80;;
9449;SDS011;4763;48.370;10.874;2023-04-15T01:17:07;3.57;;;2.93;;
9449;SDS011;4763;48.370;10.874;2023-04-15T01:19:54;4.23;;;3.17;;
9449;SDS011;4763;48.370;10.874;2023-04-15T01:22:43;3.13;;;2.80;;
9449;SDS011;4763;48.370;10.874;2023-04-15T01:25:32;5.77;;;3.27;;
9449;SDS011;4763;48.370;10.874;2023-04-15T01:28:19;2.93;;;2.57;;
9449;SDS011;4763;48.370;10.874;2023-04-15T01:31:07;7.70;;;3.13;;
9449;SDS011;4763;48.370;10.874;2023-04-15T01:33:55;6.03;;;3.13;;
9449;SDS011;4763;48.370;10.874;2023-04-15T01:36:43;5.57;;;3.23;;
9449;SDS011;4763;48.370;10.874;2023-04-15T01:39:30;5.63;;;3.03;;
9449;SDS011;4763;48.370;10.874;2023-04-15T01:42:19;5.43;;;3.30;;
9449;SDS011;4763;48.370;10.874;2023-04-15T01:45:07;3.77;;;2.93;;
9449;SDS011;4763;48.370;10.874;2023-04-15T01:47:55;4.97;;;3.53;;
9449;SDS011;4763;48.370;10.874;2023-04-15T01:50:42;4.17;;;3.27;;
9449;SDS011;4763;48.370;10.874;2023-04-15T01:53:29;4.07;;;3.30;;
9449;SDS011;4763;48.370;10.874;2023-04-15T01:56:16;5.40;;;3.27;;
9449;SDS011;4763;48.370;10.874;2023-04-15T01:59:05;4.07;;;3.30;;
9449;SDS011;4763;48.370;10.874;2023-04-15T02:01:52;3.57;;;3.00;;
9449;SDS011;4763;48.370;10.874;2023-04-15T02:04:40;3.83;;;3.17;;
9449;SDS011;4763;48.370;10.874;2023-04-15T02:07:27;4.60;;;3.30;;
9449;SDS011;4763;48.370;10.874;2023-04-15T02:10:16;7.73;;;3.37;;
9449;SDS011;4763;48.370;10.874;2023-04-15T02:13:03;4.87;;;3.13;;
9449;SDS011;4763;48.370;10.874;2023-04-15T02:15:53;5.87;;;3.10;;
9449;SDS011;4763;48.370;10.874;2023-04-15T02:18:41;3.10;;;2.80;;
9449;SDS011;4763;48.370;10.874;2023-04-15T02:21:28;3.23;;;2.90;;
9449;SDS011;4763;48.370;10.874;2023-04-15T02:24:15;5.27;;;3.03;;
9449;SDS011;4763;48.370;10.874;2023-04-15T02:27:02;5.17;;;3.30;;
9449;SDS011;4763;48.370;10.874;2023-04-15T02:29:49;5.10;;;2.73;;
9449;SDS011;4763;48.370;10.874;2023-04-15T02:32:39;4.43;;;3.27;;
9449;SDS011;4763;48.370;10.874;2023-04-15T02:35:29;4.90;;;3.43;;
9449;SDS011;4763;48.370;10.874;2023-04-15T02:38:20;7.20;;;3.00;;
9449;SDS011;4763;48.370;10.874;2023-04-15T02:41:08;4.43;;;2.93;;
9449;SDS011;4763;48.370;10.874;2023-04-15T02:43:55;4.63;;;3.10;;
9449;SDS011;4763;48.370;10.874;2023-04-15T02:46:42;4.00;;;3.20;;
9449;SDS011;4763;48.370;10.874;2023-04-15T02:49:34;6.57;;;3.60;;
9449;SDS011;4763;48.370;10.874;2023-04-15T02:52:21;4.50;;;3.60;;
9449;SDS011;4763;48.370;10.874;2023-04-15T02:55:09;3.90;;;2.93;;
9449;SDS011;4763;48.370;10.874;2023-04-15T02:57:56;4.37;;;3.43;;
9449;SDS011;4763;48.370;10.874;2023-04-15T03:00:44;7.17;;;3.70;;
9449;SDS011;4763;48.370;10.874;2023-04-15T03:03:31;5.27;;;3.13;;
9449;SDS011;4763;48.370;10.874;2023-04-15T03:06:20;6.73;;;3.83;;
9449;SDS011;4763;48.370;10.874;2023-04-15T03:09:07;5.63;;;3.60;;
9449;SDS011;4763;48.370;10.874;2023-04-15T03:11:54;4.97;;;3.00;;
9449;SDS011;4763;48.370;10.874;2023-04-15T03:14:41;6.03;;;3.40;;
9449;SDS011;4763;48.370;10.874;2023-04-15T03:17:28;4.17;;;2.77;;
9449;SDS011;4763;48.370;10.874;2023-04-15T03:20:15;5.50;;;3.80;;
9449;SDS011;4763;48.370;10.874;2023-04-15T03:23:06;6.53;;;3.57;;
9449;SDS011;4763;48.370;10.874;2023-04-15T03:25:53;8.33;;;3.20;;
9449;SDS011;4763;48.370;10.874;2023-04-15T03:28:42;6.50;;;3.33;;
9449;SDS011;4763;48.370;10.874;2023-04-15T03:31:29;5.70;;;3.03;;
9449;SDS011;4763;48.370;10.874;2023-04-15T03:34:16;5.37;;;3.13;;
9449;SDS011;4763;48.370;10.874;2023-04-15T03:37:04;7.50;;;3.40;;
9449;SDS011;4763;48.370;10.874;2023-04-15T03:39:52;5.90;;;3.23;;
9449;SDS011;4763;48.370;10.874;2023-04-15T03:42:40;5.33;;;3.53;;
9449;SDS011;4763;48.370;10.874;2023-04-15T03:45:27;4.83;;;3.33;;
9449;SDS011;4763;48.370;10.874;2023-04-15T03:48:14;7.93;;;3.60;;
9449;SDS011;4763;48.370;10.874;2023-04-15T03:51:01;7.23;;;3.40;;
9449;SDS011;4763;48.370;10.874;2023-04-15T03:53:48;6.37;;;3.27;;
9449;SDS011;4763;48.370;10.874;2023-04-15T03:56:37;4.67;;;3.30;;
9449;SDS011;4763;48.370;10.874;2023-04-15T03:59:24;7.00;;;3.33;;
9449;SDS011;4763;48.370;10.874;2023-04-15T04:02:11;4.60;;;3.10;;
9449;SDS011;4763;48.370;10.874;2023-04-15T04:04:58;6.50;;;3.13;;
9449;SDS011;4763;48.370;10.874;2023-04-15T04:07:45;4.77;;;3.00;;
9449;SDS011;4763;48.370;10.874;2023-04-15T04:10:32;5.17;;;2.93;;
9449;SDS011;4763;48.370;10.874;2023-04-15T04:13:21;6.63;;;3.10;;
9449;SDS011;4763;48.370;10.874;2023-04-15T04:16:08;11.07;;;2.90;;
9449;SDS011;4763;48.370;10.874;2023-04-15T04:18:55;5.10;;;3.13;;
9449;SDS011;4763;48.370;10.874;2023-04-15T04:21:42;7.70;;;3.40;;
9449;SDS011;4763;48.370;10.874;2023-04-15T04:24:29;5.87;;;3.17;;
9449;SDS011;4763;48.370;10.874;2023-04-15T04:27:17;5.57;;;3.03;;
9449;SDS011;4763;48.370;10.874;2023-04-15T04:30:06;6.70;;;3.17;;
9449;SDS011;4763;48.370;10.874;2023-04-15T04:32:54;8.13;;;3.80;;
9449;SDS011;4763;48.370;10.874;2023-04-15T04:35:41;5.97;;;3.23;;
9449;SDS011;4763;48.370;10.874;2023-04-15T04:38:28;4.33;;;3.10;;
9449;SDS011;4763;48.370;10.874;2023-04-15T04:41:15;6.40;;;3.20;;
9449;SDS011;4763;48.370;10.874;2023-04-15T04:44:03;4.83;;;3.30;;
9449;SDS011;4763;48.370;10.874;2023-04-15T04:46:51;5.87;;;3.33;;
9449;SDS011;4763;48.370;10.874;2023-04-15T04:49:38;5.40;;;2.90;;
9449;SDS011;4763;48.370;10.874;2023-04-15T04:52:26;7.30;;;3.47;;
9449;SDS011;4763;48.370;10.874;2023-04-15T04:55:13;3.60;;;2.60;;
9449;SDS011;4763;48.370;10.874;2023-04-15T04:58:00;6.27;;;3.13;;
9449;SDS011;4763;48.370;10.874;2023-04-15T05:00:47;4.83;;;2.90;;
9449;SDS011;4763;48.370;10.874;2023-04-15T05:03:36;5.50;;;2.90;;
9449;SDS011;4763;48.370;10.874;2023-04-15T05:06:23;3.90;;;2.60;;
9449;SDS011;4763;48.370;10.874;2023-04-15T05:09:10;5.73;;;3.07;;
9449;SDS011;4763;48.370;10.874;2023-04-15T05:11:57;6.03;;;2.60;;
9449;SDS011;4763;48.370;10.874;2023-04-15T05:14:45;4.97;;;2.60;;
9449;SDS011;4763;48.370;10.874;2023-04-15T05:17:32;4.60;;;2.57;;
9449;SDS011;4763;48.370;10.874;2023-04-15T05:20:21;5.40;;;2.87;;
9449;SDS011;4763;48.370;10.874;2023-04-15T05:23:09;5.80;;;2.50;;
9449;SDS011;4763;48.370;10.874;2023-04-15T05:25:56;17.50;;;8.43;;
9449;SDS011;4763;48.370;10.874;2023-04-15T05:28:43;8.13;;;3.63;;
9449;SDS011;4763;48.370;10.874;2023-04-15T05:31:30;9.20;;;4.67;;
9449;SDS011;4763;48.370;10.874;2023-04-15T05:34:17;7.53;;;3.63;;
9449;SDS011;4763;48.370;10.874;2023-04-15T05:37:06;10.13;;;5.20;;
9449;SDS011;4763;48.370;10.874;2023-04-15T05:39:53;12.80;;;6.37;;
9449;SDS011;4763;48.370;10.874;2023-04-15T05:42:41;12.60;;;5.17;;
9449;SDS011;4763;48.370;10.874;2023-04-15T05:45:28;9.87;;;5.97;;
9449;SDS011;4763;48.370;10.874;2023-04-15T05:48:15;7.87;;;3.40;;
9449;SDS011;4763;48.370;10.874;2023-04-15T05:51:02;4.20;;;3.13;;
9449;SDS011;4763;48.370;10.874;2023-04-15T05:53:51;5.43;;;3.33;;
9449;SDS011;4763;48.370;10.874;2023-04-15T05:56:38;7.50;;;2.77;;
9449;SDS011;4763;48.370;10.874;2023-04-15T05:59:25;3.63;;;2.23;;
9449;SDS011;4763;48.370;10.874;2023-04-15T06:02:12;5.53;;;1.93;;
9449;SDS011;4763;48.370;10.874;2023-04-15T06:05:00;4.57;;;2.37;;
9449;SDS011;4763;48.370;10.874;2023-04-15T06:07:47;6.10;;;2.03;;
9449;SDS011;4763;48.370;10.874;2023-04-15T06:10:36;2.67;;;1.90;;
9449;SDS011;4763;48.370;10.874;2023-04-15T06:13:23;4.53;;;2.40;;
9449;SDS011;4763;48.370;10.874;2023-04-15T06:16:10;6.67;;;2.30;;
9449;SDS011;4763;48.370;10.874;2023-04-15T06:18:57;3.57;;;2.37;;
9449;SDS011;4763;48.370;10.874;2023-04-15T06:21:44;4.70;;;1.97;;
9449;SDS011;4763;48.370;10.874;2023-04-15T06:24:31;3.47;;;2.10;;
9449;SDS011;4763;48.370;10.874;2023-04-15T06:27:20;5.27;;;2.10;;
9449;SDS011;4763;48.370;10.874;2023-04-15T06:30:07;2.90;;;1.93;;
9449;SDS011;4763;48.370;10.874;2023-04-15T06:32:55;2.73;;;2.00;;
9449;SDS011;4763;48.370;10.874;2023-04-15T06:35:43;4.77;;;2.67;;
9449;SDS011;4763;48.370;10.874;2023-04-15T06:38:30;2.60;;;1.73;;
9449;SDS011;4763;48.370;10.874;2023-04-15T06:41:17;3.73;;;2.23;;
9449;SDS011;4763;48.370;10.874;2023-04-15T06:44:05;2.90;;;2.07;;
9449;SDS011;4763;48.370;10.874;2023-04-15T06:46:52;5.03;;;2.27;;
9449;SDS011;4763;48.370;10.874;2023-04-15T06:49:39;3.17;;;1.77;;
9449;SDS011;4763;48.370;10.874;2023-04-15T06:52:27;2.50;;;1.60;;
9449;SDS011;4763;48.370;10.874;2023-04-15T06:55:14;2.93;;;1.80;;
9449;SDS011;4763;48.370;10.874;2023-04-15T06:58:01;1.77;;;1.43;;
9449;SDS011;4763;48.370;10.874;2023-04-15T07:00:50;4.17;;;1.80;;
9449;SDS011;4763;48.370;10.874;2023-04-15T07:03:37;3.53;;;2.07;;
9449;SDS011;4763;48.370;10.874;2023-04-15T07:06:26;5.80;;;2.63;;
9449;SDS011;4763;48.370;10.874;2023-04-15T07:09:13;5.90;;;2.70;;
9449;SDS011;4763;48.370;10.874;2023-04-15T07:12:00;4.67;;;1.93;;
9449;SDS011;4763;48.370;10.874;2023-04-15T07:14:47;3.13;;;1.63;;
9449;SDS011;4763;48.370;10.874;2023-04-15T07:17:36;3.17;;;2.00;;
9449;SDS011;4763;48.370;10.874;2023-04-15T07:20:23;1.97;;;1.60;;
9449;SDS011;4763;48.370;10.874;2023-04-15T07:23:10;4.90;;;1.87;;
9449;SDS011;4763;48.370;10.874;2023-04-15T07:25:59;4.97;;;1.80;;
9449;SDS011;4763;48.370;10.874;2023-04-15T07:28:46;3.30;;;2.00;;
9449;SDS011;4763;48.370;10.874;2023-04-15T07:31:33;3.80;;;1.73;;
9449;SDS011;4763;48.370;10.874;2023-04-15T07:34:22;6.10;;;2.07;;
9449;SDS011;4763;48.370;10.874;2023-04-15T07:37:10;5.37;;;2.30;;
9449;SDS011;4763;48.370;10.874;2023-04-15T07:39:57;2.97;;;1.80;;
9449;SDS011;4763;48.370;10.874;2023-04-15T07:42:44;5.90;;;1.70;;
9449;SDS011;4763;48.370;10.874;2023-04-15T07:45:33;3.67;;;2.00;;
9449;SDS011;4763;48.370;10.874;2023-04-15T07:48:20;5.23;;;2.53;;
9449;SDS011;4763;48.370;10.874;2023-04-15T07:51:09;5.53;;;1.90;;
9449;SDS011;4763;48.370;10.874;2023-04-15T07:53:57;4.37;;;1.70;;
9449;SDS011;4763;48.370;10.874;2023-04-15T07:56:44;6.53;;;2.30;;
9449;SDS011;4763;48.370;10.874;2023-04-15T07:59:31;6.37;;;1.77;;
9449;SDS011;4763;48.370;10.874;2023-04-15T08:02:18;4.37;;;2.33;;
9449;SDS011;4763;48.370;10.874;2023-04-15T08:05:06;4.83;;;2.43;;
9449;SDS011;4763;48.370;10.874;2023-04-15T08:07:55;6.73;;;2.40;;
9449;SDS011;4763;48.370;10.874;2023-04-15T08:10:42;2.30;;;1.80;;
9449;SDS011;4763;48.370;10.874;2023-04-15T08:13:30;4.60;;;2.30;;
9449;SDS011;4763;48.370;10.874;2023-04-15T08:16:17;7.40;;;1.83;;
9449;SDS011;4763;48.370;10.874;2023-04-15T08:19:05;2.50;;;1.80;;
9449;SDS011;4763;48.370;10.874;2023-04-15T08:21:53;4.03;;;2.10;;
9449;SDS011;4763;48.370;10.874;2023-04-15T08:24:41;2.47;;;1.60;;
9449;SDS011;4763;48.370;10.874;2023-04-15T08:27:29;4.47;;;1.57;;
9449;SDS011;4763;48.370;10.874;2023-04-15T08:30:16;5.10;;;2.07;;
9449;SDS011;4763;48.370;10.874;2023-04-15T08:33:03;4.13;;;2.30;;
9449;SDS011;4763;48.370;10.874;2023-04-15T08:35:50;2.70;;;1.70;;
9449;SDS011;4763;48.370;10.874;2023-04-15T08:38:38;5.10;;;2.07;;
9449;SDS011;4763;48.370;10.874;2023-04-15T08:41:28;5.03;;;2.20;;
9449;SDS011;4763;48.370;10.874;2023-04-15T08:44:20;2.60;;;1.97;;
9449;SDS011;4763;48.370;10.874;2023-04-15T08:47:10;4.40;;;2.10;;
9449;SDS011;4763;48.370;10.874;2023-04-15T08:49:59;9.93;;;2.10;;
9449;SDS011;4763;48.370;10.874;2023-04-15T08:52:52;2.77;;;2.00;;
9449;SDS011;4763;48.370;10.874;2023-04-15T08:55:41;4.97;;;1.93;;
9449;SDS011;4763;48.370;10.874;2023-04-15T08:58:31;8.53;;;2.43;;
9449;SDS011;4763;48.370;10.874;2023-04-15T09:01:19;2.70;;;1.73;;
9449;SDS011;4763;48.370;10.874;2023-04-15T09:04:06;3.17;;;2.00;;
9449;SDS011;4763;48.370;10.874;2023-04-15T09:06:54;2.33;;;1.77;;
9449;SDS011;4763;48.370;10.874;2023-04-15T09:09:41;3.03;;;2.03;;
9449;SDS011;4763;48.370;10.874;2023-04-15T09:12:29;4.97;;;1.93;;
9449;SDS011;4763;48.370;10.874;2023-04-15T09:15:17;3.60;;;2.10;;
9449;SDS011;4763;48.370;10.874;2023-04-15T09:18:05;4.60;;;2.50;;
9449;SDS011;4763;48.370;10.874;2023-04-15T09:20:52;3.43;;;2.17;;
9449;SDS011;4763;48.370;10.874;2023-04-15T09:23:40;4.93;;;2.50;;
9449;SDS011;4763;48.370;10.874;2023-04-15T09:26:40;5.27;;;2.60;;
9449;SDS011;4763;48.370;10.874;2023-04-15T09:29:27;4.00;;;2.00;;
9449;SDS011;4763;48.370;10.874;2023-04-15T09:32:15;4.00;;;1.97;;
9449;SDS011;4763;48.370;10.874;2023-04-15T09:35:09;4.40;;;2.47;;
9449;SDS011;4763;48.370;10.874;2023-04-15T09:38:00;2.47;;;2.03;;
9449;SDS011;4763;48.370;10.874;2023-04-15T09:40:49;4.07;;;2.53;;
9449;SDS011;4763;48.370;10.874;2023-04-15T09:43:36;3.60;;;2.60;;
9449;SDS011;4763;48.370;10.874;2023-04-15T09:46:39;4.17;;;2.40;;
9449;SDS011;4763;48.370;10.874;2023-04-15T09:49:28;3.40;;;2.13;;
9449;SDS011;4763;48.370;10.874;2023-04-15T09:52:15;4.33;;;2.17;;
9449;SDS011;4763;48.370;10.874;2023-04-15T09:55:02;4.33;;;2.70;;
9449;SDS011;4763;48.370;10.874;2023-04-15T09:57:51;3.67;;;2.23;;
9449;SDS011;4763;48.370;10.874;2023-04-15T10:00:38;3.60;;;2.33;;
9449;SDS011;4763;48.370;10.874;2023-04-15T10:03:27;3.03;;;2.40;;
9449;SDS011;4763;48.370;10.874;2023-04-15T10:06:16;2.80;;;2.50;;
9449;SDS011;4763;48.370;10.874;2023-04-15T10:09:04;6.60;;;2.60;;
9449;SDS011;4763;48.370;10.874;2023-04-15T10:11:52;9.70;;;2.80;;
9449;SDS011;4763;48.370;10.874;2023-04-15T10:14:40;5.83;;;2.73;;
9449;SDS011;4763;48.370;10.874;2023-04-15T10:17:28;4.57;;;2.20;;
9449;SDS011;4763;48.370;10.874;2023-04-15T10:20:19;3.73;;;2.40;;
9449;SDS011;4763;48.370;10.874;2023-04-15T10:23:09;3.60;;;2.33;;
9449;SDS011;4763;48.370;10.874;2023-04-15T10:25:57;5.80;;;2.57;;
9449;SDS011;4763;48.370;10.874;2023-04-15T10:28:45;5.37;;;2.80;;
9449;SDS011;4763;48.370;10.874;2023-04-15T10:31:33;3.70;;;2.50;;
9449;SDS011;4763;48.370;10.874;2023-04-15T10:34:22;3.13;;;2.10;;
9449;SDS011;4763;48.370;10.874;2023-04-15T10:37:10;3.37;;;2.37;;
9449;SDS011;4763;48.370;10.874;2023-04-15T10:39:58;4.53;;;2.70;;
9449;SDS011;4763;48.370;10.874;2023-04-15T10:42:47;4.00;;;2.70;;
9449;SDS011;4763;48.370;10.874;2023-04-15T10:45:34;5.13;;;2.70;;
9449;SDS011;4763;48.370;10.874;2023-04-15T10:48:23;5.80;;;2.67;;
9449;SDS011;4763;48.370;10.874;2023-04-15T10:51:10;6.60;;;2.80;;
9449;SDS011;4763;48.370;10.874;2023-04-15T10:53:59;3.80;;;2.40;;
9449;SDS011;4763;48.370;10.874;2023-04-15T10:56:48;7.00;;;3.47;;
9449;SDS011;4763;48.370;10.874;2023-04-15T10:59:38;6.60;;;2.83;;
9449;SDS011;4763;48.370;10.874;2023-04-15T11:02:45;6.90;;;3.40;;
9449;SDS011;4763;48.370;10.874;2023-04-15T11:08:54;4.57;;;2.77;;
9449;SDS011;4763;48.370;10.874;2023-04-15T11:14:54;2.63;;;1.20;;
9449;SDS011;4763;48.370;10.874;2023-04-15T11:17:43;1.40;;;1.10;;
9449;SDS011;4763;48.370;10.874;2023-04-15T11:20:30;6.90;;;1.10;;
9449;SDS011;4763;48.370;10.874;2023-04-15T11:23:18;1.90;;;0.97;;
9449;SDS011;4763;48.370;10.874;2023-04-15T11:26:12;2.70;;;1.20;;
9449;SDS011;4763;48.370;10.874;2023-04-15T11:29:01;1.27;;;1.03;;
9449;SDS011;4763;48.370;10.874;2023-04-15T11:31:48;2.13;;;1.13;;
9449;SDS011;4763;48.370;10.874;2023-04-15T11:34:35;1.20;;;1.10;;
9449;SDS011;4763;48.370;10.874;2023-04-15T11:37:26;1.53;;;1.10;;
9449;SDS011;4763;48.370;10.874;2023-04-15T11:40:21;1.73;;;1.00;;
9449;SDS011;4763;48.370;10.874;2023-04-15T11:43:10;3.23;;;1.10;;
9449;SDS011;4763;48.370;10.874;2023-04-15T11:46:00;3.03;;;1.00;;
9449;SDS011;4763;48.370;10.874;2023-04-15T11:48:48;3.63;;;1.00;;
9449;SDS011;4763;48.370;10.874;2023-04-15T11:51:35;1.17;;;0.93;;
9449;SDS011;4763;48.370;10.874;2023-04-15T11:54:22;1.20;;;1.10;;
9449;SDS011;4763;48.370;10.874;2023-04-15T11:57:09;1.13;;;0.90;;
9449;SDS011;4763;48.370;10.874;2023-04-15T11:59:56;2.33;;;1.10;;
9449;SDS011;4763;48.370;10.874;2023-04-15T12:02:44;1.87;;;1.30;;
9449;SDS011;4763;48.370;10.874;2023-04-15T12:05:31;6.07;;;1.80;;
9449;SDS011;4763;48.370;10.874;2023-04-15T12:08:18;2.07;;;1.50;;
9449;SDS011;4763;48.370;10.874;2023-04-15T12:11:06;4.67;;;1.50;;
9449;SDS011;4763;48.370;10.874;2023-04-15T12:13:53;4.80;;;1.70;;
9449;SDS011;4763;48.370;10.874;2023-04-15T12:16:41;10.50;;;1.97;;
9449;SDS011;4763;48.370;10.874;2023-04-15T12:19:33;4.50;;;1.60;;
9449;SDS011;4763;48.370;10.874;2023-04-15T12:22:21;2.57;;;1.50;;
9449;SDS011;4763;48.370;10.874;2023-04-15T12:25:09;1.80;;;1.40;;
9449;SDS011;4763;48.370;10.874;2023-04-15T12:27:56;3.03;;;1.40;;
9449;SDS011;4763;48.370;10.874;2023-04-15T12:30:47;2.20;;;1.50;;
9449;SDS011;4763;48.370;10.874;2023-04-15T12:33:35;2.43;;;1.33;;
9449;SDS011;4763;48.370;10.874;2023-04-15T12:36:24;2.63;;;1.90;;
9449;SDS011;4763;48.370;10.874;2023-04-15T12:39:12;3.83;;;2.40;;
9449;SDS011;4763;48.370;10.874;2023-04-15T12:41:59;3.37;;;2.00;;
9449;SDS011;4763;48.370;10.874;2023-04-15T12:44:46;8.27;;;5.67;;
9449;SDS011;4763;48.370;10.874;2023-04-15T12:47:33;4.97;;;2.80;;
9449;SDS011;4763;48.370;10.874;2023-04-15T12:50:21;6.20;;;2.40;;
9449;SDS011;4763;48.370;10.874;2023-04-15T12:53:10;3.27;;;2.40;;
9449;SDS011;4763;48.370;10.874;2023-04-15T12:55:57;2.57;;;2.13;;
9449;SDS011;4763;48.370;10.874;2023-04-15T12:58:44;5.63;;;2.27;;
9449;SDS011;4763;48.370;10.874;2023-04-15T13:01:31;2.47;;;2.17;;
9449;SDS011;4763;48.370;10.874;2023-04-15T13:04:19;9.00;;;1.90;;
9449;SDS011;4763;48.370;10.874;2023-04-15T13:07:06;4.93;;;1.93;;
9449;SDS011;4763;48.370;10.874;2023-04-15T13:09:54;4.33;;;2.10;;
9449;SDS011;4763;48.370;10.874;2023-04-15T13:12:42;4.73;;;2.10;;
9449;SDS011;4763;48.370;10.874;2023-04-15T13:15:31;2.20;;;1.70;;
9449;SDS011;4763;48.370;10.874;2023-04-15T13:18:18;1.73;;;1.30;;
9449;SDS011;4763;48.370;10.874;2023-04-15T13:21:05;1.60;;;1.10;;
9449;SDS011;4763;48.370;10.874;2023-04-15T13:23:52;1.60;;;1.33;;
9449;SDS011;4763;48.370;10.874;2023-04-15T13:26:41;3.30;;;1.50;;
9449;SDS011;4763;48.370;10.874;2023-04-15T13:29:28;5.83;;;1.80;;
9449;SDS011;4763;48.370;10.874;2023-04-15T13:32:15;7.47;;;2.00;;
9449;SDS011;4763;48.370;10.874;2023-04-15T13:35:03;5.93;;;1.70;;
9449;SDS011;4763;48.370;10.874;2023-04-15T13:37:50;4.03;;;1.37;;
9449;SDS011;4763;48.370;10.874;2023-04-15T13:40:39;3.20;;;1.93;;
9449;SDS011;4763;48.370;10.874;2023-04-15T13:43:27;3.07;;;2.13;;
9449;SDS011;4763;48.370;10.874;2023-04-15T13:46:14;3.77;;;2.50;;
9449;SDS011;4763;48.370;10.874;2023-04-15T13:49:02;5.20;;;2.27;;
9449;SDS011;4763;48.370;10.874;2023-04-15T13:51:49;2.33;;;2.10;;
9449;SDS011;4763;48.370;10.874;2023-04-15T13:54:36;5.10;;;2.50;;
9449;SDS011;4763;48.370;10.874;2023-04-15T13:57:24;4.77;;;2.50;;
9449;SDS011;4763;48.370;10.874;2023-04-15T14:00:12;3.87;;;2.27;;
9449;SDS011;4763;48.370;10.874;2023-04-15T14:03:00;3.10;;;2.33;;
9449;SDS011;4763;48.370;10.874;2023-04-15T14:05:47;5.10;;;2.63;;
9449;SDS011;4763;48.370;10.874;2023-04-15T14:08:37;2.50;;;1.87;;
9449;SDS011;4763;48.370;10.874;2023-04-15T14:11:24;2.17;;;1.43;;
9449;SDS011;4763;48.370;10.874;2023-04-15T14:14:11;7.53;;;1.70;;
9449;SDS011;4763;48.370;10.874;2023-04-15T14:17:00;2.13;;;1.53;;
9449;SDS011;4763;48.370;10.874;2023-04-15T14:19:48;3.70;;;2.37;;
9449;SDS011;4763;48.370;10.874;2023-04-15T14:22:35;3.70;;;2.40;;
9449;SDS011;4763;48.370;10.874;2023-04-15T14:25:22;5.30;;;2.83;;
9449;SDS011;4763;48.370;10.874;2023-04-15T14:28:09;4.10;;;2.00;;
9449;SDS011;4763;48.370;10.874;2023-04-15T14:30:56;2.43;;;2.10;;
9449;SDS011;4763;48.370;10.874;2023-04-15T14:33:44;4.67;;;1.90;;
9449;SDS011;4763;48.370;10.874;2023-04-15T14:36:31;2.17;;;1.50;;
9449;SDS011;4763;48.370;10.874;2023-04-15T14:39:19;2.43;;;1.70;;
9449;SDS011;4763;48.370;10.874;2023-04-15T14:42:06;5.20;;;2.97;;
9449;SDS011;4763;48.370;10.874;2023-04-15T14:44:53;5.00;;;3.87;;
9449;SDS011;4763;48.370;10.874;2023-04-15T14:47:40;5.53;;;5.00;;
9449;SDS011;4763;48.370;10.874;2023-04-15T14:50:28;7.03;;;5.47;;
9449;SDS011;4763;48.370;10.874;2023-04-15T14:53:15;5.63;;;4.23;;
9449;SDS011;4763;48.370;10.874;2023-04-15T14:56:02;3.40;;;3.00;;
9449;SDS011;4763;48.370;10.874;2023-04-15T14:58:49;4.20;;;2.57;;
9449;SDS011;4763;48.370;10.874;2023-04-15T15:01:37;2.93;;;2.40;;
9449;SDS011;4763;48.370;10.874;2023-04-15T15:04:24;3.70;;;2.23;;
9449;SDS011;4763;48.370;10.874;2023-04-15T15:07:13;3.93;;;2.10;;
9449;SDS011;4763;48.370;10.874;2023-04-15T15:10:00;3.87;;;2.10;;
9449;SDS011;4763;48.370;10.874;2023-04-15T15:12:47;2.60;;;1.70;;
9449;SDS011;4763;48.370;10.874;2023-04-15T15:15:34;1.87;;;1.53;;
9449;SDS011;4763;48.370;10.874;2023-04-15T15:18:22;1.77;;;1.60;;
9449;SDS011;4763;48.370;10.874;2023-04-15T15:21:11;1.87;;;1.70;;
9449;SDS011;4763;48.370;10.874;2023-04-15T15:23:59;2.97;;;1.80;;
9449;SDS011;4763;48.370;10.874;2023-04-15T15:26:46;2.07;;;1.83;;
9449;SDS011;4763;48.370;10.874;2023-04-15T15:29:34;2.27;;;1.60;;
9449;SDS011;4763;48.370;10.874;2023-04-15T15:32:21;1.63;;;1.50;;
9449;SDS011;4763;48.370;10.874;2023-04-15T15:35:08;3.70;;;2.37;;
9449;SDS011;4763;48.370;10.874;2023-04-15T15:37:55;3.77;;;2.07;;
9449;SDS011;4763;48.370;10.874;2023-04-15T15:40:44;5.30;;;2.03;;
9449;SDS011;4763;48.370;10.874;2023-04-15T15:43:31;4.57;;;1.80;;
9449;SDS011;4763;48.370;10.874;2023-04-15T15:46:18;3.60;;;1.90;;
9449;SDS011;4763;48.370;10.874;2023-04-15T15:49:05;3.93;;;1.87;;
9449;SDS011;4763;48.370;10.874;2023-04-15T15:51:52;2.00;;;1.60;;
9449;SDS011;4763;48.370;10.874;2023-04-15T15:54:39;3.33;;;2.53;;
9449;SDS011;4763;48.370;10.874;2023-04-15T15:57:28;4.97;;;2.73;;
9449;SDS011;4763;48.370;10.874;2023-04-15T16:00:16;7.50;;;2.50;;
9449;SDS011;4763;48.370;10.874;2023-04-15T16:03:03;3.53;;;2.67;;
9449;SDS011;4763;48.370;10.874;2023-04-15T16:05:50;4.67;;;3.10;;
9449;SDS011;4763;48.370;10.874;2023-04-15T16:08:37;3.03;;;2.73;;
9449;SDS011;4763;48.370;10.874;2023-04-15T16:11:24;2.63;;;2.20;;
9449;SDS011;4763;48.370;10.874;2023-04-15T16:14:12;3.43;;;2.33;;
9449;SDS011;4763;48.370;10.874;2023-04-15T16:17:00;3.80;;;2.80;;
9449;SDS011;4763;48.370;10.874;2023-04-15T16:19:47;7.60;;;3.27;;
9449;SDS011;4763;48.370;10.874;2023-04-15T16:22:35;4.13;;;2.93;;
9449;SDS011;4763;48.370;10.874;2023-04-15T16:25:22;5.57;;;2.20;;
9449;SDS011;4763;48.370;10.874;2023-04-15T16:28:10;2.80;;;2.30;;
9449;SDS011;4763;48.370;10.874;2023-04-15T16:30:58;3.83;;;2.50;;
9449;SDS011;4763;48.370;10.874;2023-04-15T16:33:45;3.13;;;2.50;;
9449;SDS011;4763;48.370;10.874;2023-04-15T16:36:32;6.13;;;3.00;;
9449;SDS011;4763;48.370;10.874;2023-04-15T16:39:20;5.17;;;2.57;;
9449;SDS011;4763;48.370;10.874;2023-04-15T16:42:08;5.40;;;4.10;;
9449;SDS011;4763;48.370;10.874;2023-04-15T16:44:55;6.40;;;3.47;;
9449;SDS011;4763;48.370;10.874;2023-04-15T16:47:45;4.83;;;3.70;;
9449;SDS011;4763;48.370;10.874;2023-04-15T16:50:32;4.13;;;3.73;;
9449;SDS011;4763;48.370;10.874;2023-04-15T16:53:19;6.53;;;3.90;;
9449;SDS011;4763;48.370;10.874;2023-04-15T16:56:06;8.03;;;5.20;;
9449;SDS011;4763;48.370;10.874;2023-04-15T16:58:54;9.17;;;6.20;;
9449;SDS011;4763;48.370;10.874;2023-04-15T17:01:41;7.13;;;4.37;;
9449;SDS011;4763;48.370;10.874;2023-04-15T17:04:29;7.80;;;5.97;;
9449;SDS011;4763;48.370;10.874;2023-04-15T17:07:16;13.17;;;7.03;;
9449;SDS011;4763;48.370;10.874;2023-04-15T17:10:03;11.90;;;8.43;;
9449;SDS011;4763;48.370;10.874;2023-04-15T17:12:51;13.73;;;6.50;;